sensor_id;sensor_type;location;lat;lon;timestamp;P1;durP1;ratioP1;P2;durP2;ratioP2
38083;SDS011;23894;51.466;7.444;2023-05-09T00:00:17;13.30;;;11.77;;
38083;SDS011;23894;51.466;7.444;2023-05-09T00:02:19;13.82;;;12.43;;
38083;SDS011;23894;51.466;7.444;2023-05-09T00:04:21;14.25;;;12.18;;
38083;SDS011;23894;51.466;7.444;2023-05-09T00:06:23;13.73;;;12.23;;
38083;SDS011;23894;51.466;7.444;2023-05-09T00:08:25;15.60;;;12.65;;
38083;SDS011;23894;51.466;7.444;2023-05-09T00:10:26;13.70;;;12.13;;
38083;SDS011;23894;51.466;7.444;2023-05-09T00:12:27;13.45;;;12.05;;
38083;SDS011;23894;51.466;7.444;2023-05-09T00:14:28;13.82;;;12.25;;
38083;SDS011;23894;51.466;7.444;2023-05-09T00:16:32;14.25;;;12.75;;
38083;SDS011;23894;51.466;7.444;2023-05-09T00:18:33;14.55;;;13.05;;
38083;SDS011;23894;51.466;7.444;2023-05-09T00:20:35;15.80;;;14.20;;
38083;SDS011;23894;51.466;7.444;2023-05-09T00:22:37;15.10;;;13.50;;
38083;SDS011;23894;51.466;7.444;2023-05-09T00:24:39;15.32;;;13.35;;
38083;SDS011;23894;51.466;7.444;2023-05-09T00:26:40;15.80;;;13.75;;
38083;SDS011;23894;51.466;7.444;2023-05-09T00:28:41;15.55;;;13.60;;
38083;SDS011;23894;51.466;7.444;2023-05-09T00:30:42;16.38;;;14.68;;
38083;SDS011;23894;51.466;7.444;2023-05-09T00:32:43;15.75;;;14.02;;
38083;SDS011;23894;51.466;7.444;2023-05-09T00:34:44;15.90;;;14.35;;
38083;SDS011;23894;51.466;7.444;2023-05-09T00:36:45;15.57;;;13.80;;
38083;SDS011;23894;51.466;7.444;2023-05-09T00:38:46;14.57;;;13.00;;
38083;SDS011;23894;51.466;7.444;2023-05-09T00:40:48;15.55;;;12.10;;
38083;SDS011;23894;51.466;7.444;2023-05-09T00:42:48;13.37;;;11.97;;
38083;SDS011;23894;51.466;7.444;2023-05-09T00:44:50;14.02;;;12.60;;
38083;SDS011;23894;51.466;7.444;2023-05-09T00:46:51;14.30;;;12.80;;
38083;SDS011;23894;51.466;7.444;2023-05-09T00:48:52;13.97;;;12.50;;
38083;SDS011;23894;51.466;7.444;2023-05-09T00:50:53;14.23;;;12.23;;
38083;SDS011;23894;51.466;7.444;2023-05-09T00:52:54;14.18;;;11.55;;
38083;SDS011;23894;51.466;7.444;2023-05-09T00:54:55;13.25;;;11.85;;
38083;SDS011;23894;51.466;7.444;2023-05-09T00:56:56;13.35;;;11.68;;
38083;SDS011;23894;51.466;7.444;2023-05-09T00:58:57;12.82;;;10.90;;
38083;SDS011;23894;51.466;7.444;2023-05-09T01:00:59;13.20;;;11.85;;
38083;SDS011;23894;51.466;7.444;2023-05-09T01:03:01;12.95;;;11.57;;
38083;SDS011;23894;51.466;7.444;2023-05-09T01:05:02;14.45;;;12.45;;
38083;SDS011;23894;51.466;7.444;2023-05-09T01:07:12;14.63;;;12.32;;
38083;SDS011;23894;51.466;7.444;2023-05-09T01:09:37;14.55;;;12.65;;
38083;SDS011;23894;51.466;7.444;2023-05-09T01:13:45;15.70;;;14.02;;
38083;SDS011;23894;51.466;7.444;2023-05-09T01:15:53;16.48;;;14.77;;
38083;SDS011;23894;51.466;7.444;2023-05-09T01:17:57;16.75;;;15.07;;
38083;SDS011;23894;51.466;7.444;2023-05-09T01:20:13;17.60;;;14.80;;
38083;SDS011;23894;51.466;7.444;2023-05-09T01:22:17;17.20;;;15.40;;
38083;SDS011;23894;51.466;7.444;2023-05-09T01:24:33;17.38;;;15.60;;
38083;SDS011;23894;51.466;7.444;2023-05-09T01:27:26;17.83;;;15.75;;
38083;SDS011;23894;51.466;7.444;2023-05-09T01:29:22;17.70;;;15.90;;
38083;SDS011;23894;51.466;7.444;2023-05-09T01:31:27;17.43;;;15.57;;
38083;SDS011;23894;51.466;7.444;2023-05-09T01:33:28;18.42;;;16.52;;
38083;SDS011;23894;51.466;7.444;2023-05-09T01:35:32;18.30;;;16.35;;
38083;SDS011;23894;51.466;7.444;2023-05-09T01:37:35;19.05;;;16.95;;
38083;SDS011;23894;51.466;7.444;2023-05-09T01:39:39;17.92;;;16.10;;
38083;SDS011;23894;51.466;7.444;2023-05-09T01:41:41;19.50;;;16.75;;
38083;SDS011;23894;51.466;7.444;2023-05-09T01:43:43;17.38;;;15.15;;
38083;SDS011;23894;51.466;7.444;2023-05-09T01:45:46;19.45;;;17.27;;
38083;SDS011;23894;51.466;7.444;2023-05-09T01:47:48;18.00;;;16.15;;
38083;SDS011;23894;51.466;7.444;2023-05-09T01:49:49;20.10;;;18.10;;
38083;SDS011;23894;51.466;7.444;2023-05-09T01:51:51;18.70;;;16.70;;
38083;SDS011;23894;51.466;7.444;2023-05-09T01:53:53;20.02;;;18.02;;
38083;SDS011;23894;51.466;7.444;2023-05-09T01:55:56;19.58;;;17.58;;
38083;SDS011;23894;51.466;7.444;2023-05-09T01:57:58;20.48;;;18.35;;
38083;SDS011;23894;51.466;7.444;2023-05-09T01:59:59;20.40;;;18.23;;
38083;SDS011;23894;51.466;7.444;2023-05-09T02:02:01;20.33;;;18.20;;
38083;SDS011;23894;51.466;7.444;2023-05-09T02:04:03;20.63;;;18.52;;
38083;SDS011;23894;51.466;7.444;2023-05-09T02:06:04;21.07;;;18.87;;
38083;SDS011;23894;51.466;7.444;2023-05-09T02:08:06;21.38;;;19.17;;
38083;SDS011;23894;51.466;7.444;2023-05-09T02:10:08;20.65;;;18.48;;
38083;SDS011;23894;51.466;7.444;2023-05-09T02:12:10;20.77;;;18.67;;
38083;SDS011;23894;51.466;7.444;2023-05-09T02:14:11;22.13;;;19.93;;
38083;SDS011;23894;51.466;7.444;2023-05-09T02:16:12;21.25;;;19.05;;
38083;SDS011;23894;51.466;7.444;2023-05-09T02:18:13;22.38;;;20.08;;
38083;SDS011;23894;51.466;7.444;2023-05-09T02:20:15;21.45;;;19.25;;
38083;SDS011;23894;51.466;7.444;2023-05-09T02:22:16;21.60;;;19.48;;
38083;SDS011;23894;51.466;7.444;2023-05-09T02:24:17;21.52;;;19.10;;
38083;SDS011;23894;51.466;7.444;2023-05-09T02:26:18;22.60;;;20.30;;
38083;SDS011;23894;51.466;7.444;2023-05-09T02:28:20;22.67;;;20.27;;
38083;SDS011;23894;51.466;7.444;2023-05-09T02:30:23;22.50;;;19.80;;
38083;SDS011;23894;51.466;7.444;2023-05-09T02:32:25;23.25;;;20.85;;
38083;SDS011;23894;51.466;7.444;2023-05-09T02:34:26;23.75;;;21.35;;
38083;SDS011;23894;51.466;7.444;2023-05-09T02:36:28;22.90;;;20.48;;
38083;SDS011;23894;51.466;7.444;2023-05-09T02:38:29;23.17;;;20.88;;
38083;SDS011;23894;51.466;7.444;2023-05-09T02:40:31;23.33;;;20.98;;
38083;SDS011;23894;51.466;7.444;2023-05-09T02:42:33;23.60;;;21.10;;
38083;SDS011;23894;51.466;7.444;2023-05-09T02:44:34;23.70;;;21.20;;
38083;SDS011;23894;51.466;7.444;2023-05-09T02:46:35;25.02;;;22.33;;
38083;SDS011;23894;51.466;7.444;2023-05-09T02:48:36;24.38;;;21.88;;
38083;SDS011;23894;51.466;7.444;2023-05-09T02:50:38;24.70;;;22.13;;
38083;SDS011;23894;51.466;7.444;2023-05-09T02:52:41;24.70;;;22.10;;
38083;SDS011;23894;51.466;7.444;2023-05-09T02:54:43;24.60;;;22.02;;
38083;SDS011;23894;51.466;7.444;2023-05-09T02:56:45;25.13;;;22.53;;
38083;SDS011;23894;51.466;7.444;2023-05-09T02:58:46;25.27;;;22.58;;
38083;SDS011;23894;51.466;7.444;2023-05-09T03:00:50;25.90;;;23.20;;
38083;SDS011;23894;51.466;7.444;2023-05-09T03:02:51;26.15;;;23.50;;
38083;SDS011;23894;51.466;7.444;2023-05-09T03:04:52;26.42;;;23.70;;
38083;SDS011;23894;51.466;7.444;2023-05-09T03:06:53;25.10;;;22.50;;
38083;SDS011;23894;51.466;7.444;2023-05-09T03:08:54;25.92;;;23.33;;
38083;SDS011;23894;51.466;7.444;2023-05-09T03:10:55;26.23;;;23.63;;
38083;SDS011;23894;51.466;7.444;2023-05-09T03:12:56;25.80;;;23.13;;
38083;SDS011;23894;51.466;7.444;2023-05-09T03:14:57;25.23;;;22.60;;
38083;SDS011;23894;51.466;7.444;2023-05-09T03:17:00;25.20;;;22.63;;
38083;SDS011;23894;51.466;7.444;2023-05-09T03:19:01;25.83;;;23.23;;
38083;SDS011;23894;51.466;7.444;2023-05-09T03:21:02;26.73;;;24.02;;
38083;SDS011;23894;51.466;7.444;2023-05-09T03:23:03;25.80;;;23.10;;
38083;SDS011;23894;51.466;7.444;2023-05-09T03:25:04;25.45;;;22.83;;
38083;SDS011;23894;51.466;7.444;2023-05-09T03:27:06;25.90;;;23.30;;
38083;SDS011;23894;51.466;7.444;2023-05-09T03:29:06;25.27;;;22.73;;
38083;SDS011;23894;51.466;7.444;2023-05-09T03:31:08;25.70;;;23.10;;
38083;SDS011;23894;51.466;7.444;2023-05-09T03:33:09;26.17;;;23.40;;
38083;SDS011;23894;51.466;7.444;2023-05-09T03:35:10;25.58;;;23.05;;
38083;SDS011;23894;51.466;7.444;2023-05-09T03:37:10;25.40;;;22.80;;
38083;SDS011;23894;51.466;7.444;2023-05-09T03:39:11;26.17;;;23.58;;
38083;SDS011;23894;51.466;7.444;2023-05-09T03:41:13;25.17;;;22.67;;
38083;SDS011;23894;51.466;7.444;2023-05-09T03:43:15;24.97;;;22.37;;
38083;SDS011;23894;51.466;7.444;2023-05-09T03:45:16;25.05;;;22.35;;
38083;SDS011;23894;51.466;7.444;2023-05-09T03:47:17;25.10;;;22.50;;
38083;SDS011;23894;51.466;7.444;2023-05-09T03:49:18;25.52;;;22.98;;
38083;SDS011;23894;51.466;7.444;2023-05-09T03:51:19;24.83;;;22.33;;
38083;SDS011;23894;51.466;7.444;2023-05-09T03:53:20;24.98;;;22.48;;
38083;SDS011;23894;51.466;7.444;2023-05-09T03:55:21;26.52;;;23.73;;
38083;SDS011;23894;51.466;7.444;2023-05-09T03:57:22;23.88;;;21.38;;
38083;SDS011;23894;51.466;7.444;2023-05-09T03:59:23;25.17;;;22.52;;
38083;SDS011;23894;51.466;7.444;2023-05-09T04:01:25;26.40;;;23.42;;
38083;SDS011;23894;51.466;7.444;2023-05-09T04:03:26;25.80;;;23.15;;
38083;SDS011;23894;51.466;7.444;2023-05-09T04:05:27;27.00;;;24.30;;
38083;SDS011;23894;51.466;7.444;2023-05-09T04:07:28;26.55;;;23.88;;
38083;SDS011;23894;51.466;7.444;2023-05-09T04:09:29;26.95;;;24.13;;
38083;SDS011;23894;51.466;7.444;2023-05-09T04:11:30;26.98;;;24.15;;
38083;SDS011;23894;51.466;7.444;2023-05-09T04:13:32;27.00;;;24.35;;
38083;SDS011;23894;51.466;7.444;2023-05-09T04:15:33;26.10;;;23.40;;
38083;SDS011;23894;51.466;7.444;2023-05-09T04:17:34;26.50;;;23.77;;
38083;SDS011;23894;51.466;7.444;2023-05-09T04:19:35;26.63;;;23.92;;
38083;SDS011;23894;51.466;7.444;2023-05-09T04:21:36;27.03;;;24.23;;
38083;SDS011;23894;51.466;7.444;2023-05-09T04:23:37;26.98;;;24.38;;
38083;SDS011;23894;51.466;7.444;2023-05-09T04:25:38;26.27;;;23.58;;
38083;SDS011;23894;51.466;7.444;2023-05-09T04:27:39;26.73;;;24.02;;
38083;SDS011;23894;51.466;7.444;2023-05-09T04:29:40;27.20;;;24.40;;
38083;SDS011;23894;51.466;7.444;2023-05-09T04:31:41;26.57;;;23.90;;
38083;SDS011;23894;51.466;7.444;2023-05-09T04:33:42;26.42;;;23.83;;
38083;SDS011;23894;51.466;7.444;2023-05-09T04:35:43;26.45;;;23.90;;
38083;SDS011;23894;51.466;7.444;2023-05-09T04:37:45;25.93;;;23.33;;
38083;SDS011;23894;51.466;7.444;2023-05-09T04:39:46;26.15;;;23.55;;
38083;SDS011;23894;51.466;7.444;2023-05-09T04:41:47;26.48;;;23.88;;
38083;SDS011;23894;51.466;7.444;2023-05-09T04:43:48;27.63;;;24.73;;
38083;SDS011;23894;51.466;7.444;2023-05-09T04:45:50;26.73;;;24.00;;
38083;SDS011;23894;51.466;7.444;2023-05-09T04:47:51;26.73;;;24.02;;
38083;SDS011;23894;51.466;7.444;2023-05-09T04:49:52;27.23;;;24.48;;
38083;SDS011;23894;51.466;7.444;2023-05-09T04:51:53;26.65;;;23.95;;
38083;SDS011;23894;51.466;7.444;2023-05-09T04:53:54;28.33;;;25.42;;
38083;SDS011;23894;51.466;7.444;2023-05-09T04:55:55;28.80;;;25.92;;
38083;SDS011;23894;51.466;7.444;2023-05-09T04:57:56;27.13;;;24.23;;
38083;SDS011;23894;51.466;7.444;2023-05-09T04:59:57;27.20;;;24.40;;
38083;SDS011;23894;51.466;7.444;2023-05-09T05:01:58;27.27;;;24.40;;
38083;SDS011;23894;51.466;7.444;2023-05-09T05:03:59;26.42;;;23.63;;
38083;SDS011;23894;51.466;7.444;2023-05-09T05:06:00;28.05;;;25.17;;
38083;SDS011;23894;51.466;7.444;2023-05-09T05:08:01;28.03;;;25.13;;
38083;SDS011;23894;51.466;7.444;2023-05-09T05:10:02;26.45;;;23.73;;
38083;SDS011;23894;51.466;7.444;2023-05-09T05:12:05;28.98;;;25.95;;
38083;SDS011;23894;51.466;7.444;2023-05-09T05:14:07;27.10;;;24.30;;
38083;SDS011;23894;51.466;7.444;2023-05-09T05:16:08;26.13;;;23.42;;
38083;SDS011;23894;51.466;7.444;2023-05-09T05:18:09;26.48;;;23.70;;
38083;SDS011;23894;51.466;7.444;2023-05-09T05:20:11;25.80;;;23.20;;
38083;SDS011;23894;51.466;7.444;2023-05-09T05:22:12;25.25;;;22.65;;
38083;SDS011;23894;51.466;7.444;2023-05-09T05:24:13;25.87;;;23.17;;
38083;SDS011;23894;51.466;7.444;2023-05-09T05:26:14;24.85;;;22.40;;
38083;SDS011;23894;51.466;7.444;2023-05-09T05:28:15;25.13;;;22.58;;
38083;SDS011;23894;51.466;7.444;2023-05-09T05:30:16;25.40;;;22.70;;
38083;SDS011;23894;51.466;7.444;2023-05-09T05:32:17;25.45;;;22.95;;
38083;SDS011;23894;51.466;7.444;2023-05-09T05:34:18;25.33;;;22.63;;
38083;SDS011;23894;51.466;7.444;2023-05-09T05:36:19;25.65;;;23.05;;
38083;SDS011;23894;51.466;7.444;2023-05-09T05:38:20;26.40;;;23.80;;
38083;SDS011;23894;51.466;7.444;2023-05-09T05:40:21;26.15;;;23.55;;
38083;SDS011;23894;51.466;7.444;2023-05-09T05:42:22;26.50;;;23.95;;
38083;SDS011;23894;51.466;7.444;2023-05-09T05:44:23;26.37;;;23.77;;
38083;SDS011;23894;51.466;7.444;2023-05-09T05:46:24;26.67;;;23.95;;
38083;SDS011;23894;51.466;7.444;2023-05-09T05:48:25;25.77;;;23.15;;
38083;SDS011;23894;51.466;7.444;2023-05-09T05:50:26;26.33;;;23.63;;
38083;SDS011;23894;51.466;7.444;2023-05-09T05:52:27;25.92;;;23.27;;
38083;SDS011;23894;51.466;7.444;2023-05-09T05:54:28;25.95;;;23.35;;
38083;SDS011;23894;51.466;7.444;2023-05-09T05:56:29;24.87;;;22.17;;
38083;SDS011;23894;51.466;7.444;2023-05-09T05:58:30;26.13;;;23.42;;
38083;SDS011;23894;51.466;7.444;2023-05-09T06:00:31;24.90;;;22.50;;
38083;SDS011;23894;51.466;7.444;2023-05-09T06:02:32;25.35;;;22.75;;
38083;SDS011;23894;51.466;7.444;2023-05-09T06:04:33;25.73;;;23.03;;
38083;SDS011;23894;51.466;7.444;2023-05-09T06:06:34;25.23;;;22.63;;
38083;SDS011;23894;51.466;7.444;2023-05-09T06:08:35;25.73;;;23.02;;
38083;SDS011;23894;51.466;7.444;2023-05-09T06:10:36;26.50;;;23.77;;
38083;SDS011;23894;51.466;7.444;2023-05-09T06:12:37;24.98;;;22.35;;
38083;SDS011;23894;51.466;7.444;2023-05-09T06:14:38;25.17;;;22.67;;
38083;SDS011;23894;51.466;7.444;2023-05-09T06:16:39;26.27;;;23.63;;
38083;SDS011;23894;51.466;7.444;2023-05-09T06:18:40;27.02;;;24.27;;
38083;SDS011;23894;51.466;7.444;2023-05-09T06:20:41;26.50;;;23.80;;
38083;SDS011;23894;51.466;7.444;2023-05-09T06:22:42;26.67;;;23.80;;
38083;SDS011;23894;51.466;7.444;2023-05-09T06:24:43;26.55;;;23.80;;
38083;SDS011;23894;51.466;7.444;2023-05-09T06:26:44;27.13;;;24.33;;
38083;SDS011;23894;51.466;7.444;2023-05-09T06:28:45;26.85;;;24.00;;
38083;SDS011;23894;51.466;7.444;2023-05-09T06:30:46;27.75;;;24.95;;
38083;SDS011;23894;51.466;7.444;2023-05-09T06:32:47;26.48;;;23.85;;
38083;SDS011;23894;51.466;7.444;2023-05-09T06:34:48;26.40;;;23.73;;
38083;SDS011;23894;51.466;7.444;2023-05-09T06:36:49;27.27;;;24.38;;
38083;SDS011;23894;51.466;7.444;2023-05-09T06:38:50;26.67;;;23.98;;
38083;SDS011;23894;51.466;7.444;2023-05-09T06:40:51;27.95;;;25.15;;
38083;SDS011;23894;51.466;7.444;2023-05-09T06:42:52;26.50;;;23.73;;
38083;SDS011;23894;51.466;7.444;2023-05-09T06:44:53;25.73;;;23.08;;
38083;SDS011;23894;51.466;7.444;2023-05-09T06:46:54;26.60;;;23.85;;
38083;SDS011;23894;51.466;7.444;2023-05-09T06:48:55;26.38;;;23.67;;
38083;SDS011;23894;51.466;7.444;2023-05-09T06:50:56;27.08;;;24.27;;
38083;SDS011;23894;51.466;7.444;2023-05-09T06:52:57;27.00;;;24.15;;
38083;SDS011;23894;51.466;7.444;2023-05-09T06:54:58;26.05;;;23.25;;
38083;SDS011;23894;51.466;7.444;2023-05-09T06:56:59;24.75;;;22.15;;
38083;SDS011;23894;51.466;7.444;2023-05-09T06:59:00;23.00;;;20.70;;
38083;SDS011;23894;51.466;7.444;2023-05-09T07:01:01;23.23;;;20.93;;
38083;SDS011;23894;51.466;7.444;2023-05-09T07:03:03;23.88;;;21.48;;
38083;SDS011;23894;51.466;7.444;2023-05-09T07:05:07;23.27;;;20.77;;
38083;SDS011;23894;51.466;7.444;2023-05-09T07:07:08;22.67;;;20.38;;
38083;SDS011;23894;51.466;7.444;2023-05-09T07:09:09;21.60;;;19.30;;
38083;SDS011;23894;51.466;7.444;2023-05-09T07:11:10;21.48;;;19.25;;
38083;SDS011;23894;51.466;7.444;2023-05-09T07:13:11;22.90;;;20.50;;
38083;SDS011;23894;51.466;7.444;2023-05-09T07:15:12;21.45;;;19.25;;
38083;SDS011;23894;51.466;7.444;2023-05-09T07:17:13;23.08;;;19.70;;
38083;SDS011;23894;51.466;7.444;2023-05-09T07:19:14;22.27;;;19.98;;
38083;SDS011;23894;51.466;7.444;2023-05-09T07:21:15;22.60;;;20.20;;
38083;SDS011;23894;51.466;7.444;2023-05-09T07:23:16;23.17;;;20.70;;
38083;SDS011;23894;51.466;7.444;2023-05-09T07:25:18;23.17;;;20.63;;
38083;SDS011;23894;51.466;7.444;2023-05-09T07:27:19;22.77;;;20.38;;
38083;SDS011;23894;51.466;7.444;2023-05-09T07:29:20;21.67;;;19.20;;
38083;SDS011;23894;51.466;7.444;2023-05-09T07:31:21;22.42;;;20.13;;
38083;SDS011;23894;51.466;7.444;2023-05-09T07:33:22;20.85;;;18.65;;
38083;SDS011;23894;51.466;7.444;2023-05-09T07:35:23;20.55;;;18.42;;
38083;SDS011;23894;51.466;7.444;2023-05-09T07:37:24;22.17;;;19.77;;
38083;SDS011;23894;51.466;7.444;2023-05-09T07:39:25;21.45;;;19.25;;
38083;SDS011;23894;51.466;7.444;2023-05-09T07:41:26;22.57;;;20.27;;
38083;SDS011;23894;51.466;7.444;2023-05-09T07:43:27;21.00;;;18.80;;
38083;SDS011;23894;51.466;7.444;2023-05-09T07:45:28;22.40;;;20.10;;
38083;SDS011;23894;51.466;7.444;2023-05-09T07:47:29;21.25;;;19.13;;
38083;SDS011;23894;51.466;7.444;2023-05-09T07:49:31;20.42;;;18.33;;
38083;SDS011;23894;51.466;7.444;2023-05-09T07:51:32;19.77;;;17.77;;
38083;SDS011;23894;51.466;7.444;2023-05-09T07:53:33;21.50;;;18.33;;
38083;SDS011;23894;51.466;7.444;2023-05-09T07:55:34;19.92;;;17.77;;
38083;SDS011;23894;51.466;7.444;2023-05-09T07:57:35;21.15;;;18.95;;
38083;SDS011;23894;51.466;7.444;2023-05-09T07:59:37;20.03;;;17.83;;
38083;SDS011;23894;51.466;7.444;2023-05-09T08:01:38;22.20;;;19.90;;
38083;SDS011;23894;51.466;7.444;2023-05-09T08:03:39;21.85;;;19.55;;
38083;SDS011;23894;51.466;7.444;2023-05-09T08:05:40;21.00;;;18.80;;
38083;SDS011;23894;51.466;7.444;2023-05-09T08:07:41;21.08;;;18.88;;
38083;SDS011;23894;51.466;7.444;2023-05-09T08:09:42;20.08;;;17.65;;
38083;SDS011;23894;51.466;7.444;2023-05-09T08:11:43;19.87;;;17.77;;
38083;SDS011;23894;51.466;7.444;2023-05-09T08:13:44;20.55;;;18.50;;
38083;SDS011;23894;51.466;7.444;2023-05-09T08:15:47;20.53;;;18.43;;
38083;SDS011;23894;51.466;7.444;2023-05-09T08:17:48;19.83;;;17.73;;
38083;SDS011;23894;51.466;7.444;2023-05-09T08:19:49;20.15;;;17.33;;
38083;SDS011;23894;51.466;7.444;2023-05-09T08:21:51;17.73;;;15.87;;
38083;SDS011;23894;51.466;7.444;2023-05-09T08:23:52;16.77;;;15.07;;
38083;SDS011;23894;51.466;7.444;2023-05-09T08:25:53;18.80;;;16.80;;
38083;SDS011;23894;51.466;7.444;2023-05-09T08:27:55;18.85;;;16.55;;
38083;SDS011;23894;51.466;7.444;2023-05-09T08:29:56;17.58;;;15.77;;
38083;SDS011;23894;51.466;7.444;2023-05-09T08:31:57;18.60;;;16.65;;
38083;SDS011;23894;51.466;7.444;2023-05-09T08:33:58;18.70;;;16.70;;
38083;SDS011;23894;51.466;7.444;2023-05-09T08:36:00;18.90;;;16.98;;
38083;SDS011;23894;51.466;7.444;2023-05-09T08:38:01;18.37;;;16.50;;
38083;SDS011;23894;51.466;7.444;2023-05-09T08:40:03;20.33;;;18.23;;
38083;SDS011;23894;51.466;7.444;2023-05-09T08:42:07;19.08;;;17.08;;
38083;SDS011;23894;51.466;7.444;2023-05-09T08:44:09;20.37;;;18.17;;
38083;SDS011;23894;51.466;7.444;2023-05-09T08:46:10;20.05;;;17.95;;
38083;SDS011;23894;51.466;7.444;2023-05-09T08:48:11;19.53;;;17.10;;
38083;SDS011;23894;51.466;7.444;2023-05-09T08:50:12;19.88;;;17.83;;
38083;SDS011;23894;51.466;7.444;2023-05-09T08:52:16;19.52;;;17.42;;
38083;SDS011;23894;51.466;7.444;2023-05-09T08:54:17;20.10;;;17.85;;
38083;SDS011;23894;51.466;7.444;2023-05-09T08:56:18;20.00;;;17.90;;
38083;SDS011;23894;51.466;7.444;2023-05-09T08:58:20;19.70;;;17.77;;
38083;SDS011;23894;51.466;7.444;2023-05-09T09:00:21;18.27;;;16.40;;
38083;SDS011;23894;51.466;7.444;2023-05-09T09:02:22;17.97;;;15.77;;
38083;SDS011;23894;51.466;7.444;2023-05-09T09:04:23;17.05;;;15.30;;
38083;SDS011;23894;51.466;7.444;2023-05-09T09:06:25;16.38;;;14.70;;
38083;SDS011;23894;51.466;7.444;2023-05-09T09:08:26;16.80;;;15.10;;
38083;SDS011;23894;51.466;7.444;2023-05-09T09:10:27;15.20;;;13.50;;
38083;SDS011;23894;51.466;7.444;2023-05-09T09:12:30;16.17;;;14.52;;
38083;SDS011;23894;51.466;7.444;2023-05-09T09:14:32;16.65;;;14.93;;
38083;SDS011;23894;51.466;7.444;2023-05-09T09:16:36;14.23;;;12.77;;
38083;SDS011;23894;51.466;7.444;2023-05-09T09:18:37;15.33;;;13.77;;
38083;SDS011;23894;51.466;7.444;2023-05-09T09:20:39;15.53;;;13.93;;
38083;SDS011;23894;51.466;7.444;2023-05-09T09:22:41;16.17;;;14.47;;
38083;SDS011;23894;51.466;7.444;2023-05-09T09:24:42;14.15;;;11.95;;
38083;SDS011;23894;51.466;7.444;2023-05-09T09:26:47;14.40;;;12.32;;
38083;SDS011;23894;51.466;7.444;2023-05-09T09:28:48;15.25;;;13.00;;
38083;SDS011;23894;51.466;7.444;2023-05-09T09:30:49;13.80;;;11.93;;
38083;SDS011;23894;51.466;7.444;2023-05-09T09:32:50;12.63;;;11.32;;
38083;SDS011;23894;51.466;7.444;2023-05-09T09:34:51;12.98;;;11.45;;
38083;SDS011;23894;51.466;7.444;2023-05-09T09:37:05;11.35;;;10.15;;
38083;SDS011;23894;51.466;7.444;2023-05-09T09:39:07;12.98;;;9.90;;
38083;SDS011;23894;51.466;7.444;2023-05-09T09:41:08;11.93;;;10.60;;
38083;SDS011;23894;51.466;7.444;2023-05-09T09:43:12;11.13;;;9.20;;
38083;SDS011;23894;51.466;7.444;2023-05-09T09:45:15;11.07;;;8.88;;
38083;SDS011;23894;51.466;7.444;2023-05-09T09:47:16;12.23;;;8.15;;
38083;SDS011;23894;51.466;7.444;2023-05-09T09:49:18;9.98;;;7.60;;
38083;SDS011;23894;51.466;7.444;2023-05-09T09:51:19;9.85;;;7.05;;
38083;SDS011;23894;51.466;7.444;2023-05-09T09:53:20;11.40;;;7.68;;
38083;SDS011;23894;51.466;7.444;2023-05-09T09:55:23;10.37;;;7.90;;
38083;SDS011;23894;51.466;7.444;2023-05-09T09:57:34;9.07;;;7.50;;
38083;SDS011;23894;51.466;7.444;2023-05-09T09:59:36;9.95;;;7.00;;
38083;SDS011;23894;51.466;7.444;2023-05-09T10:03:56;10.63;;;7.63;;
38083;SDS011;23894;51.466;7.444;2023-05-09T10:05:59;9.57;;;7.25;;
38083;SDS011;23894;51.466;7.444;2023-05-09T10:08:02;9.77;;;6.90;;
38083;SDS011;23894;51.466;7.444;2023-05-09T10:10:04;9.57;;;6.57;;
38083;SDS011;23894;51.466;7.444;2023-05-09T10:12:06;9.98;;;6.65;;
38083;SDS011;23894;51.466;7.444;2023-05-09T10:14:07;8.43;;;7.00;;
38083;SDS011;23894;51.466;7.444;2023-05-09T10:16:08;10.52;;;6.63;;
38083;SDS011;23894;51.466;7.444;2023-05-09T10:18:10;11.80;;;7.88;;
38083;SDS011;23894;51.466;7.444;2023-05-09T10:20:13;9.07;;;7.28;;
38083;SDS011;23894;51.466;7.444;2023-05-09T10:22:15;9.77;;;6.95;;
38083;SDS011;23894;51.466;7.444;2023-05-09T10:24:20;8.70;;;6.90;;
38083;SDS011;23894;51.466;7.444;2023-05-09T10:26:23;9.45;;;7.00;;
38083;SDS011;23894;51.466;7.444;2023-05-09T10:28:30;7.97;;;5.95;;
38083;SDS011;23894;51.466;7.444;2023-05-09T10:30:34;8.10;;;6.25;;
38083;SDS011;23894;51.466;7.444;2023-05-09T10:32:45;7.63;;;5.80;;
38083;SDS011;23894;51.466;7.444;2023-05-09T10:34:50;8.48;;;5.88;;
38083;SDS011;23894;51.466;7.444;2023-05-09T10:36:52;7.00;;;5.50;;
38083;SDS011;23894;51.466;7.444;2023-05-09T10:38:54;8.52;;;5.30;;
38083;SDS011;23894;51.466;7.444;2023-05-09T10:40:55;7.72;;;5.15;;
38083;SDS011;23894;51.466;7.444;2023-05-09T10:42:56;7.80;;;5.25;;
38083;SDS011;23894;51.466;7.444;2023-05-09T10:44:57;7.10;;;5.13;;
38083;SDS011;23894;51.466;7.444;2023-05-09T10:46:59;7.18;;;5.25;;
38083;SDS011;23894;51.466;7.444;2023-05-09T10:49:01;10.30;;;5.15;;
38083;SDS011;23894;51.466;7.444;2023-05-09T10:51:02;8.05;;;5.18;;
38083;SDS011;23894;51.466;7.444;2023-05-09T10:55:09;9.50;;;6.18;;
38083;SDS011;23894;51.466;7.444;2023-05-09T10:57:11;9.25;;;7.18;;
38083;SDS011;23894;51.466;7.444;2023-05-09T10:59:37;8.30;;;6.53;;
38083;SDS011;23894;51.466;7.444;2023-05-09T11:01:38;9.15;;;7.40;;
38083;SDS011;23894;51.466;7.444;2023-05-09T11:03:53;9.15;;;7.18;;
38083;SDS011;23894;51.466;7.444;2023-05-09T11:05:55;10.27;;;8.00;;
38083;SDS011;23894;51.466;7.444;2023-05-09T11:10:16;9.52;;;6.78;;
38083;SDS011;23894;51.466;7.444;2023-05-09T11:12:18;8.30;;;6.60;;
38083;SDS011;23894;51.466;7.444;2023-05-09T11:16:55;7.70;;;5.35;;
38083;SDS011;23894;51.466;7.444;2023-05-09T11:18:57;7.57;;;5.15;;
38083;SDS011;23894;51.466;7.444;2023-05-09T11:20:58;8.50;;;5.50;;
38083;SDS011;23894;51.466;7.444;2023-05-09T11:22:59;10.57;;;5.72;;
38083;SDS011;23894;51.466;7.444;2023-05-09T11:25:04;8.75;;;6.38;;
38083;SDS011;23894;51.466;7.444;2023-05-09T11:29:16;7.80;;;5.93;;
38083;SDS011;23894;51.466;7.444;2023-05-09T11:31:17;8.02;;;5.82;;
38083;SDS011;23894;51.466;7.444;2023-05-09T11:33:22;8.50;;;5.70;;
38083;SDS011;23894;51.466;7.444;2023-05-09T11:35:23;6.93;;;5.03;;
38083;SDS011;23894;51.466;7.444;2023-05-09T11:37:25;7.65;;;4.68;;
38083;SDS011;23894;51.466;7.444;2023-05-09T11:39:31;8.07;;;4.63;;
38083;SDS011;23894;51.466;7.444;2023-05-09T11:41:42;7.15;;;4.07;;
38083;SDS011;23894;51.466;7.444;2023-05-09T11:43:43;7.30;;;4.40;;
38083;SDS011;23894;51.466;7.444;2023-05-09T11:45:45;6.63;;;4.18;;
38083;SDS011;23894;51.466;7.444;2023-05-09T11:47:46;6.18;;;3.80;;
38083;SDS011;23894;51.466;7.444;2023-05-09T11:49:47;7.20;;;3.85;;
38083;SDS011;23894;51.466;7.444;2023-05-09T11:51:48;7.30;;;4.10;;
38083;SDS011;23894;51.466;7.444;2023-05-09T11:53:49;6.85;;;4.35;;
38083;SDS011;23894;51.466;7.444;2023-05-09T11:55:52;7.57;;;4.13;;
38083;SDS011;23894;51.466;7.444;2023-05-09T11:57:54;6.10;;;4.10;;
38083;SDS011;23894;51.466;7.444;2023-05-09T11:59:55;7.15;;;4.60;;
38083;SDS011;23894;51.466;7.444;2023-05-09T12:02:00;7.40;;;5.25;;
38083;SDS011;23894;51.466;7.444;2023-05-09T12:04:02;8.73;;;5.00;;
38083;SDS011;23894;51.466;7.444;2023-05-09T12:06:06;7.15;;;4.47;;
38083;SDS011;23894;51.466;7.444;2023-05-09T12:08:08;7.18;;;4.63;;
38083;SDS011;23894;51.466;7.444;2023-05-09T12:10:13;7.05;;;4.50;;